sensor_id;sensor_type;location;lat;lon;timestamp;pressure;altitude;pressure_sealevel;temperature
75428;BMP280;64008;55.612;37.698;2023-02-18T00:02:04;99712.03;;;12.87
75428;BMP280;64008;55.612;37.698;2023-02-18T00:07:14;99710.19;;;12.87
75428;BMP280;64008;55.612;37.698;2023-02-18T00:09:39;99706.88;;;12.80
75428;BMP280;64008;55.612;37.698;2023-02-18T00:12:05;99710.66;;;12.84
75428;BMP280;64008;55.612;37.698;2023-02-18T00:14:30;99705.84;;;12.81
75428;BMP280;64008;55.612;37.698;2023-02-18T00:16:56;99705.53;;;12.78
75428;BMP280;64008;55.612;37.698;2023-02-18T00:19:21;99700.56;;;12.81
75428;BMP280;64008;55.612;37.698;2023-02-18T00:21:47;99705.22;;;12.74
75428;BMP280;64008;55.612;37.698;2023-02-18T00:24:14;99700.94;;;12.73
75428;BMP280;64008;55.612;37.698;2023-02-18T00:29:24;99694.13;;;12.77
75428;BMP280;64008;55.612;37.698;2023-02-18T00:32:09;99691.81;;;12.81
75428;BMP280;64008;55.612;37.698;2023-02-18T00:34:34;99693.22;;;12.71
75428;BMP280;64008;55.612;37.698;2023-02-18T00:40:03;99675.56;;;12.77
75428;BMP280;64008;55.612;37.698;2023-02-18T00:42:28;99677.97;;;12.62
75428;BMP280;64008;55.612;37.698;2023-02-18T00:44:54;99677.50;;;12.65
75428;BMP280;64008;55.612;37.698;2023-02-18T00:47:19;99664.19;;;12.60
75428;BMP280;64008;55.612;37.698;2023-02-18T00:49:45;99675.31;;;12.62
75428;BMP280;64008;55.612;37.698;2023-02-18T00:52:10;99670.00;;;12.62
75428;BMP280;64008;55.612;37.698;2023-02-18T00:54:36;99666.25;;;12.58
75428;BMP280;64008;55.612;37.698;2023-02-18T00:57:01;99657.56;;;12.62
75428;BMP280;64008;55.612;37.698;2023-02-18T00:59:27;99666.66;;;12.66
75428;BMP280;64008;55.612;37.698;2023-02-18T01:01:52;99666.91;;;12.65
75428;BMP280;64008;55.612;37.698;2023-02-18T01:04:18;99655.50;;;12.64
75428;BMP280;64008;55.612;37.698;2023-02-18T01:06:43;99652.53;;;12.61
75428;BMP280;64008;55.612;37.698;2023-02-18T01:12:11;99643.22;;;12.58
75428;BMP280;64008;55.612;37.698;2023-02-18T01:17:39;99632.31;;;12.55
75428;BMP280;64008;55.612;37.698;2023-02-18T01:20:05;99620.16;;;12.59
75428;BMP280;64008;55.612;37.698;2023-02-18T01:22:31;99609.88;;;12.62
75428;BMP280;64008;55.612;37.698;2023-02-18T01:24:57;99606.69;;;12.60
75428;BMP280;64008;55.612;37.698;2023-02-18T01:27:22;99598.19;;;12.58
75428;BMP280;64008;55.612;37.698;2023-02-18T01:29:49;99592.69;;;12.48
75428;BMP280;64008;55.612;37.698;2023-02-18T01:32:14;99594.47;;;12.59
75428;BMP280;64008;55.612;37.698;2023-02-18T01:34:40;99584.50;;;12.66
75428;BMP280;64008;55.612;37.698;2023-02-18T01:37:24;99580.25;;;12.65
75428;BMP280;64008;55.612;37.698;2023-02-18T01:40:11;99577.28;;;12.62
75428;BMP280;64008;55.612;37.698;2023-02-18T01:42:37;99582.03;;;12.60
75428;BMP280;64008;55.612;37.698;2023-02-18T01:48:06;99576.81;;;12.65
75428;BMP280;64008;55.612;37.698;2023-02-18T01:50:38;99563.50;;;12.60
75428;BMP280;64008;55.612;37.698;2023-02-18T01:53:05;99556.63;;;12.64
75428;BMP280;64008;55.612;37.698;2023-02-18T01:55:32;99565.09;;;12.61
75428;BMP280;64008;55.612;37.698;2023-02-18T01:57:58;99551.09;;;12.65
75428;BMP280;64008;55.612;37.698;2023-02-18T02:00:24;99544.06;;;12.54
75428;BMP280;64008;55.612;37.698;2023-02-18T02:02:51;99548.88;;;12.57
75428;BMP280;64008;55.612;37.698;2023-02-18T02:05:19;99542.06;;;12.61
75428;BMP280;64008;55.612;37.698;2023-02-18T02:07:46;99543.16;;;12.65
75428;BMP280;64008;55.612;37.698;2023-02-18T02:10:39;99532.00;;;12.63
75428;BMP280;64008;55.612;37.698;2023-02-18T02:13:17;99531.28;;;12.68
75428;BMP280;64008;55.612;37.698;2023-02-18T02:31:02;99509.69;;;12.81
75428;BMP280;64008;55.612;37.698;2023-02-18T02:36:57;99514.56;;;12.89
75428;BMP280;64008;55.612;37.698;2023-02-18T02:44:35;99508.88;;;13.03
75428;BMP280;64008;55.612;37.698;2023-02-18T02:47:10;99501.47;;;13.05
75428;BMP280;64008;55.612;37.698;2023-02-18T02:49:48;99500.06;;;12.97
75428;BMP280;64008;55.612;37.698;2023-02-18T02:52:30;99495.91;;;13.01
75428;BMP280;64008;55.612;37.698;2023-02-18T02:55:15;99495.13;;;13.06
75428;BMP280;64008;55.612;37.698;2023-02-18T02:57:59;99497.84;;;13.11
75428;BMP280;64008;55.612;37.698;2023-02-18T03:00:40;99486.91;;;13.07
75428;BMP280;64008;55.612;37.698;2023-02-18T03:11:57;99457.31;;;13.16
75428;BMP280;64008;55.612;37.698;2023-02-18T03:14:40;99457.25;;;13.10
75428;BMP280;64008;55.612;37.698;2023-02-18T03:17:15;99447.38;;;13.06
75428;BMP280;64008;55.612;37.698;2023-02-18T03:22:38;99450.56;;;13.03
75428;BMP280;64008;55.612;37.698;2023-02-18T03:25:04;99442.59;;;13.03
75428;BMP280;64008;55.612;37.698;2023-02-18T03:27:33;99448.47;;;13.10
75428;BMP280;64008;55.612;37.698;2023-02-18T03:30:26;99438.44;;;13.12
75428;BMP280;64008;55.612;37.698;2023-02-18T03:32:57;99432.84;;;13.08
75428;BMP280;64008;55.612;37.698;2023-02-18T03:35:24;99426.00;;;13.12
75428;BMP280;64008;55.612;37.698;2023-02-18T03:37:55;99419.88;;;13.12
75428;BMP280;64008;55.612;37.698;2023-02-18T03:40:26;99415.38;;;13.12
75428;BMP280;64008;55.612;37.698;2023-02-18T03:42:52;99416.00;;;13.25
75428;BMP280;64008;55.612;37.698;2023-02-18T03:48:20;99403.50;;;13.20
75428;BMP280;64008;55.612;37.698;2023-02-18T03:53:49;99401.94;;;13.24
75428;BMP280;64008;55.612;37.698;2023-02-18T03:56:15;99394.47;;;13.16
75428;BMP280;64008;55.612;37.698;2023-02-18T03:58:40;99388.06;;;13.17
75428;BMP280;64008;55.612;37.698;2023-02-18T04:01:06;99380.22;;;13.22
75428;BMP280;64008;55.612;37.698;2023-02-18T04:03:31;99382.25;;;13.15
75428;BMP280;64008;55.612;37.698;2023-02-18T04:05:57;99381.25;;;13.21
75428;BMP280;64008;55.612;37.698;2023-02-18T04:08:23;99369.88;;;13.26
75428;BMP280;64008;55.612;37.698;2023-02-18T04:10:49;99378.13;;;13.29
75428;BMP280;64008;55.612;37.698;2023-02-18T04:13:14;99366.97;;;13.27
75428;BMP280;64008;55.612;37.698;2023-02-18T04:16:00;99371.72;;;13.25
75428;BMP280;64008;55.612;37.698;2023-02-18T04:18:25;99367.00;;;13.32
75428;BMP280;64008;55.612;37.698;2023-02-18T04:20:51;99362.72;;;13.31
75428;BMP280;64008;55.612;37.698;2023-02-18T04:26:01;99352.31;;;13.20
75428;BMP280;64008;55.612;37.698;2023-02-18T04:28:26;99345.22;;;13.30
75428;BMP280;64008;55.612;37.698;2023-02-18T04:30:52;99339.13;;;13.30
75428;BMP280;64008;55.612;37.698;2023-02-18T04:33:17;99335.78;;;13.45
75428;BMP280;64008;55.612;37.698;2023-02-18T04:35:43;99328.94;;;13.54
75428;BMP280;64008;55.612;37.698;2023-02-18T04:38:09;99329.66;;;13.44
75428;BMP280;64008;55.612;37.698;2023-02-18T04:40:35;99324.63;;;13.43
75428;BMP280;64008;55.612;37.698;2023-02-18T04:43:01;99314.28;;;13.41
75428;BMP280;64008;55.612;37.698;2023-02-18T04:45:45;99311.94;;;13.50
75428;BMP280;64008;55.612;37.698;2023-02-18T04:50:55;99304.50;;;13.47
75428;BMP280;64008;55.612;37.698;2023-02-18T04:53:58;99331.88;;;13.58
75428;BMP280;64008;55.612;37.698;2023-02-18T04:59:07;99324.09;;;13.46
75428;BMP280;64008;55.612;37.698;2023-02-18T05:01:33;99316.16;;;13.51
75428;BMP280;64008;55.612;37.698;2023-02-18T05:03:58;99321.56;;;13.61
75428;BMP280;64008;55.612;37.698;2023-02-18T05:06:24;99308.06;;;13.63
75428;BMP280;64008;55.612;37.698;2023-02-18T05:08:49;99308.56;;;13.70
75428;BMP280;64008;55.612;37.698;2023-02-18T05:11:15;99304.66;;;13.78
75428;BMP280;64008;55.612;37.698;2023-02-18T05:13:40;99309.16;;;13.82
75428;BMP280;64008;55.612;37.698;2023-02-18T05:16:24;99300.69;;;13.80
75428;BMP280;64008;55.612;37.698;2023-02-18T05:18:50;99296.19;;;13.81
75428;BMP280;64008;55.612;37.698;2023-02-18T05:21:15;99288.97;;;13.76
75428;BMP280;64008;55.612;37.698;2023-02-18T05:23:41;99288.47;;;13.84
75428;BMP280;64008;55.612;37.698;2023-02-18T05:26:25;99278.63;;;13.80
75428;BMP280;64008;55.612;37.698;2023-02-18T05:28:51;99277.59;;;13.81
75428;BMP280;64008;55.612;37.698;2023-02-18T05:31:34;99273.34;;;13.80
75428;BMP280;64008;55.612;37.698;2023-02-18T05:34:02;99269.88;;;13.79
75428;BMP280;64008;55.612;37.698;2023-02-18T05:36:28;99268.75;;;13.70
75428;BMP280;64008;55.612;37.698;2023-02-18T05:38:53;99263.03;;;13.99
75428;BMP280;64008;55.612;37.698;2023-02-18T05:41:19;99264.63;;;13.94
75428;BMP280;64008;55.612;37.698;2023-02-18T05:43:45;99257.16;;;13.81
75428;BMP280;64008;55.612;37.698;2023-02-18T05:46:29;99260.88;;;13.80
75428;BMP280;64008;55.612;37.698;2023-02-18T05:48:54;99252.88;;;13.75
75428;BMP280;64008;55.612;37.698;2023-02-18T05:51:20;99253.97;;;13.79
75428;BMP280;64008;55.612;37.698;2023-02-18T05:53:45;99239.84;;;13.73
75428;BMP280;64008;55.612;37.698;2023-02-18T05:58:55;99234.09;;;13.92
75428;BMP280;64008;55.612;37.698;2023-02-18T06:01:20;99231.19;;;13.93
75428;BMP280;64008;55.612;37.698;2023-02-18T06:03:46;99225.06;;;13.93
75428;BMP280;64008;55.612;37.698;2023-02-18T06:06:12;99227.72;;;13.93
75428;BMP280;64008;55.612;37.698;2023-02-18T06:08:38;99225.34;;;13.97
75428;BMP280;64008;55.612;37.698;2023-02-18T06:11:03;99216.03;;;13.94
75428;BMP280;64008;55.612;37.698;2023-02-18T06:13:29;99214.47;;;13.93
75428;BMP280;64008;55.612;37.698;2023-02-18T06:15:55;99212.03;;;13.86
75428;BMP280;64008;55.612;37.698;2023-02-18T06:18:21;99210.44;;;13.80
75428;BMP280;64008;55.612;37.698;2023-02-18T06:23:30;99208.06;;;13.99
75428;BMP280;64008;55.612;37.698;2023-02-18T06:28:58;99196.66;;;14.09
75428;BMP280;64008;55.612;37.698;2023-02-18T06:31:23;99194.56;;;14.11
75428;BMP280;64008;55.612;37.698;2023-02-18T06:33:49;99197.75;;;14.13
75428;BMP280;64008;55.612;37.698;2023-02-18T06:36:14;99185.25;;;14.19
75428;BMP280;64008;55.612;37.698;2023-02-18T06:38:42;99185.53;;;14.12
75428;BMP280;64008;55.612;37.698;2023-02-18T06:41:08;99171.44;;;14.11
75428;BMP280;64008;55.612;37.698;2023-02-18T06:43:34;99176.50;;;14.13
75428;BMP280;64008;55.612;37.698;2023-02-18T06:48:43;99171.44;;;14.22
75428;BMP280;64008;55.612;37.698;2023-02-18T06:51:09;99172.53;;;14.31
75428;BMP280;64008;55.612;37.698;2023-02-18T06:53:35;99161.38;;;14.29
75428;BMP280;64008;55.612;37.698;2023-02-18T06:56:00;99158.19;;;14.32
75428;BMP280;64008;55.612;37.698;2023-02-18T06:58:44;99150.97;;;14.17
75428;BMP280;64008;55.612;37.698;2023-02-18T07:01:28;99156.59;;;14.31
75428;BMP280;64008;55.612;37.698;2023-02-18T07:03:54;99152.06;;;14.36
75428;BMP280;64008;55.612;37.698;2023-02-18T07:06:20;99141.97;;;14.44
75428;BMP280;64008;55.612;37.698;2023-02-18T07:08:45;99142.47;;;14.46
75428;BMP280;64008;55.612;37.698;2023-02-18T07:11:11;99139.56;;;14.42
75428;BMP280;64008;55.612;37.698;2023-02-18T07:13:36;99134.78;;;14.44
75428;BMP280;64008;55.612;37.698;2023-02-18T07:16:02;99131.88;;;14.35
75428;BMP280;64008;55.612;37.698;2023-02-18T07:18:27;99129.47;;;14.44
75428;BMP280;64008;55.612;37.698;2023-02-18T07:20:53;99118.84;;;14.49
75428;BMP280;64008;55.612;37.698;2023-02-18T07:23:19;99103.91;;;14.58
75428;BMP280;64008;55.612;37.698;2023-02-18T07:25:44;99106.56;;;14.74
75428;BMP280;64008;55.612;37.698;2023-02-18T07:28:28;99099.63;;;14.73
75428;BMP280;64008;55.612;37.698;2023-02-18T07:30:53;99102.56;;;14.71
75428;BMP280;64008;55.612;37.698;2023-02-18T07:33:19;99106.00;;;14.77
75428;BMP280;64008;55.612;37.698;2023-02-18T07:35:44;99104.38;;;14.86
75428;BMP280;64008;55.612;37.698;2023-02-18T07:38:10;99091.91;;;14.87
75428;BMP280;64008;55.612;37.698;2023-02-18T07:40:35;99088.41;;;14.91
75428;BMP280;64008;55.612;37.698;2023-02-18T07:43:01;99090.78;;;14.93
75428;BMP280;64008;55.612;37.698;2023-02-18T07:45:26;99091.38;;;15.34
75428;BMP280;64008;55.612;37.698;2023-02-18T07:50:55;99075.13;;;15.36
75428;BMP280;64008;55.612;37.698;2023-02-18T07:53:20;99074.34;;;15.35
75428;BMP280;64008;55.612;37.698;2023-02-18T07:55:46;99069.06;;;15.30
75428;BMP280;64008;55.612;37.698;2023-02-18T07:58:19;99057.69;;;15.59
75428;BMP280;64008;55.612;37.698;2023-02-18T08:00:45;99064.75;;;15.74
75428;BMP280;64008;55.612;37.698;2023-02-18T08:03:13;99057.50;;;15.50
75428;BMP280;64008;55.612;37.698;2023-02-18T08:05:39;99050.81;;;15.53
75428;BMP280;64008;55.612;37.698;2023-02-18T08:08:04;99050.75;;;15.58
75428;BMP280;64008;55.612;37.698;2023-02-18T08:10:30;99036.97;;;15.56
75428;BMP280;64008;55.612;37.698;2023-02-18T08:12:56;99045.72;;;15.56
75428;BMP280;64008;55.612;37.698;2023-02-18T08:15:21;99034.84;;;15.53
75428;BMP280;64008;55.612;37.698;2023-02-18T08:17:47;99019.38;;;15.55
75428;BMP280;64008;55.612;37.698;2023-02-18T08:20:13;99020.94;;;15.61
75428;BMP280;64008;55.612;37.698;2023-02-18T08:22:38;99010.84;;;15.58
75428;BMP280;64008;55.612;37.698;2023-02-18T08:25:04;99011.09;;;15.56
75428;BMP280;64008;55.612;37.698;2023-02-18T08:27:30;99023.41;;;15.47
75428;BMP280;64008;55.612;37.698;2023-02-18T08:29:55;99023.66;;;15.56
75428;BMP280;64008;55.612;37.698;2023-02-18T08:32:21;99012.38;;;15.64
75428;BMP280;64008;55.612;37.698;2023-02-18T08:34:46;99010.28;;;15.61
75428;BMP280;64008;55.612;37.698;2023-02-18T08:37:12;99005.97;;;15.65
75428;BMP280;64008;55.612;37.698;2023-02-18T08:39:38;98994.03;;;15.63
75428;BMP280;64008;55.612;37.698;2023-02-18T08:42:04;98991.88;;;15.65
75428;BMP280;64008;55.612;37.698;2023-02-18T08:44:30;98991.59;;;15.66
75428;BMP280;64008;55.612;37.698;2023-02-18T08:49:39;98970.16;;;15.81
75428;BMP280;64008;55.612;37.698;2023-02-18T08:52:05;98968.84;;;15.79
75428;BMP280;64008;55.612;37.698;2023-02-18T08:54:30;98971.97;;;15.86
75428;BMP280;64008;55.612;37.698;2023-02-18T08:56:56;98957.91;;;15.80
75428;BMP280;64008;55.612;37.698;2023-02-18T08:59:25;98962.63;;;15.89
75428;BMP280;64008;55.612;37.698;2023-02-18T09:02:13;98953.00;;;15.93
75428;BMP280;64008;55.612;37.698;2023-02-18T09:04:38;98940.19;;;15.95
75428;BMP280;64008;55.612;37.698;2023-02-18T09:07:04;98936.63;;;16.05
75428;BMP280;64008;55.612;37.698;2023-02-18T09:09:30;98949.19;;;12.26
75428;BMP280;64008;55.612;37.698;2023-02-18T09:11:55;98943.97;;;11.61
75428;BMP280;64008;55.612;37.698;2023-02-18T09:14:21;98938.34;;;13.11
75428;BMP280;64008;55.612;37.698;2023-02-18T09:16:47;98946.69;;;11.66
75428;BMP280;64008;55.612;37.698;2023-02-18T09:19:12;98932.97;;;12.75
75428;BMP280;64008;55.612;37.698;2023-02-18T09:21:38;98940.72;;;9.95
75428;BMP280;64008;55.612;37.698;2023-02-18T09:27:06;98918.53;;;11.55
75428;BMP280;64008;55.612;37.698;2023-02-18T09:29:50;98910.47;;;11.72
75428;BMP280;64008;55.612;37.698;2023-02-18T09:32:16;98906.19;;;12.66
75428;BMP280;64008;55.612;37.698;2023-02-18T09:34:43;98887.41;;;13.50
75428;BMP280;64008;55.612;37.698;2023-02-18T09:37:09;98884.00;;;14.30
75428;BMP280;64008;55.612;37.698;2023-02-18T09:39:35;98883.97;;;14.85
75428;BMP280;64008;55.612;37.698;2023-02-18T09:42:06;98867.69;;;15.26
75428;BMP280;64008;55.612;37.698;2023-02-18T09:47:17;98855.38;;;15.83
75428;BMP280;64008;55.612;37.698;2023-02-18T09:49:47;98859.19;;;15.96
75428;BMP280;64008;55.612;37.698;2023-02-18T09:52:19;98852.66;;;16.07
75428;BMP280;64008;55.612;37.698;2023-02-18T09:54:45;98853.69;;;16.11
75428;BMP280;64008;55.612;37.698;2023-02-18T10:00:12;98835.72;;;16.36
75428;BMP280;64008;55.612;37.698;2023-02-18T10:02:56;98826.38;;;16.57
75428;BMP280;64008;55.612;37.698;2023-02-18T10:05:23;98822.59;;;16.58
75428;BMP280;64008;55.612;37.698;2023-02-18T10:07:53;98824.03;;;16.70
75428;BMP280;64008;55.612;37.698;2023-02-18T10:10:31;98816.53;;;16.72
75428;BMP280;64008;55.612;37.698;2023-02-18T10:12:57;98809.47;;;16.95
75428;BMP280;64008;55.612;37.698;2023-02-18T10:15:42;98800.50;;;17.04
75428;BMP280;64008;55.612;37.698;2023-02-18T10:20:53;98802.53;;;16.80
75428;BMP280;64008;55.612;37.698;2023-02-18T10:23:21;98798.22;;;16.98
75428;BMP280;64008;55.612;37.698;2023-02-18T10:26:09;98785.28;;;17.05
75428;BMP280;64008;55.612;37.698;2023-02-18T10:28:37;98779.88;;;17.10
75428;BMP280;64008;55.612;37.698;2023-02-18T10:31:27;98778.00;;;17.24
75428;BMP280;64008;55.612;37.698;2023-02-18T10:34:08;98773.44;;;17.25
75428;BMP280;64008;55.612;37.698;2023-02-18T10:39:39;98759.78;;;17.13
75428;BMP280;64008;55.612;37.698;2023-02-18T10:51:28;98754.44;;;16.85
75428;BMP280;64008;55.612;37.698;2023-02-18T10:53:55;98743.97;;;16.88
75428;BMP280;64008;55.612;37.698;2023-02-18T10:56:47;98750.56;;;16.77
75428;BMP280;64008;55.612;37.698;2023-02-18T10:59:24;98745.63;;;16.98
75428;BMP280;64008;55.612;37.698;2023-02-18T11:02:18;98745.84;;;17.02
75428;BMP280;64008;55.612;37.698;2023-02-18T11:04:44;98736.06;;;17.25
75428;BMP280;64008;55.612;37.698;2023-02-18T11:07:14;98732.22;;;17.31
75428;BMP280;64008;55.612;37.698;2023-02-18T11:09:54;98728.44;;;17.46
75428;BMP280;64008;55.612;37.698;2023-02-18T11:12:33;98731.16;;;17.55
75428;BMP280;64008;55.612;37.698;2023-02-18T11:17:41;98725.34;;;17.53
75428;BMP280;64008;55.612;37.698;2023-02-18T11:26:02;98718.94;;;17.26
75428;BMP280;64008;55.612;37.698;2023-02-18T11:28:41;98710.16;;;17.25
75428;BMP280;64008;55.612;37.698;2023-02-18T11:31:39;98703.28;;;17.61
75428;BMP280;64008;55.612;37.698;2023-02-18T11:34:14;98696.69;;;17.44
75428;BMP280;64008;55.612;37.698;2023-02-18T11:36:41;98692.53;;;17.38
75428;BMP280;64008;55.612;37.698;2023-02-18T11:39:21;98689.50;;;17.31
75428;BMP280;64008;55.612;37.698;2023-02-18T11:49:26;98672.84;;;17.48
75428;BMP280;64008;55.612;37.698;2023-02-18T11:51:51;98664.72;;;17.53
75428;BMP280;64008;55.612;37.698;2023-02-18T11:54:28;98673.66;;;17.71
75428;BMP280;64008;55.612;37.698;2023-02-18T11:57:13;98667.69;;;17.74
75428;BMP280;64008;55.612;37.698;2023-02-18T11:59:39;98647.81;;;17.58
75428;BMP280;64008;55.612;37.698;2023-02-18T12:04:41;98663.38;;;17.64
75428;BMP280;64008;55.612;37.698;2023-02-18T12:07:22;98660.56;;;17.83
75428;BMP280;64008;55.612;37.698;2023-02-18T12:09:51;98656.50;;;17.86
75428;BMP280;64008;55.612;37.698;2023-02-18T12:18:19;98653.28;;;17.98
75428;BMP280;64008;55.612;37.698;2023-02-18T12:31:46;98634.44;;;17.58
75428;BMP280;64008;55.612;37.698;2023-02-18T12:53:39;98610.53;;;16.80
75428;BMP280;64008;55.612;37.698;2023-02-18T13:04:23;98599.16;;;16.47
75428;BMP280;64008;55.612;37.698;2023-02-18T13:07:11;98581.91;;;16.44
75428;BMP280;64008;55.612;37.698;2023-02-18T13:12:45;98585.03;;;16.32
75428;BMP280;64008;55.612;37.698;2023-02-18T13:18:23;98576.25;;;15.85
75428;BMP280;64008;55.612;37.698;2023-02-18T13:20:59;98581.03;;;15.69
75428;BMP280;64008;55.612;37.698;2023-02-18T13:23:30;98570.19;;;15.47
75428;BMP280;64008;55.612;37.698;2023-02-18T13:26:00;98573.03;;;15.36
75428;BMP280;64008;55.612;37.698;2023-02-18T13:33:55;98563.09;;;15.04
75428;BMP280;64008;55.612;37.698;2023-02-18T13:39:26;98555.56;;;14.87
75428;BMP280;64008;55.612;37.698;2023-02-18T13:50:24;98541.25;;;14.64
75428;BMP280;64008;55.612;37.698;2023-02-18T13:58:20;98535.88;;;13.58
75428;BMP280;64008;55.612;37.698;2023-02-18T14:00:55;98534.19;;;14.30
75428;BMP280;64008;55.612;37.698;2023-02-18T14:03:35;98538.47;;;14.74
75428;BMP280;64008;55.612;37.698;2023-02-18T14:08:38;98530.81;;;15.30
75428;BMP280;64008;55.612;37.698;2023-02-18T14:13:46;98528.28;;;15.71
75428;BMP280;64008;55.612;37.698;2023-02-18T14:16:13;98523.78;;;15.86
75428;BMP280;64008;55.612;37.698;2023-02-18T14:50:23;98494.28;;;16.51
75428;BMP280;64008;55.612;37.698;2023-02-18T14:52:58;98494.00;;;16.53
75428;BMP280;64008;55.612;37.698;2023-02-18T14:55:29;98479.59;;;16.54
75428;BMP280;64008;55.612;37.698;2023-02-18T14:58:01;98486.97;;;16.57
75428;BMP280;64008;55.612;37.698;2023-02-18T15:00:31;98478.69;;;16.58
75428;BMP280;64008;55.612;37.698;2023-02-18T15:02:59;98476.22;;;16.62
75428;BMP280;64008;55.612;37.698;2023-02-18T15:05:31;98477.78;;;16.63
75428;BMP280;64008;55.612;37.698;2023-02-18T15:08:05;98471.97;;;16.61
75428;BMP280;64008;55.612;37.698;2023-02-18T15:10:39;98469.63;;;16.59
75428;BMP280;64008;55.612;37.698;2023-02-18T15:13:16;98461.72;;;16.54
75428;BMP280;64008;55.612;37.698;2023-02-18T15:15:43;98455.28;;;16.55
75428;BMP280;64008;55.612;37.698;2023-02-18T15:18:21;98458.28;;;16.54
75428;BMP280;64008;55.612;37.698;2023-02-18T15:20:48;98448.97;;;16.51
75428;BMP280;64008;55.612;37.698;2023-02-18T15:23:15;98440.19;;;16.51
75428;BMP280;64008;55.612;37.698;2023-02-18T15:25:46;98443.66;;;16.51
75428;BMP280;64008;55.612;37.698;2023-02-18T15:28:28;98442.06;;;16.50
75428;BMP280;64008;55.612;37.698;2023-02-18T15:30:59;98438.31;;;16.51
75428;BMP280;64008;55.612;37.698;2023-02-18T15:33:25;98433.78;;;16.52
75428;BMP280;64008;55.612;37.698;2023-02-18T15:35:51;98439.09;;;16.52
75428;BMP280;64008;55.612;37.698;2023-02-18T15:38:18;98434.06;;;16.50
75428;BMP280;64008;55.612;37.698;2023-02-18T15:40:51;98433.47;;;16.53
75428;BMP280;64008;55.612;37.698;2023-02-18T15:43:21;98439.31;;;16.55
75428;BMP280;64008;55.612;37.698;2023-02-18T15:45:49;98419.84;;;16.55
75428;BMP280;64008;55.612;37.698;2023-02-18T15:48:31;98417.47;;;16.53
75428;BMP280;64008;55.612;37.698;2023-02-18T15:51:05;98411.09;;;16.54
75428;BMP280;64008;55.612;37.698;2023-02-18T15:53:31;98423.31;;;16.55
75428;BMP280;64008;55.612;37.698;2023-02-18T15:56:05;98411.53;;;16.56
75428;BMP280;64008;55.612;37.698;2023-02-18T15:58:33;98422.22;;;16.56
75428;BMP280;64008;55.612;37.698;2023-02-18T16:01:01;98415.19;;;16.60
75428;BMP280;64008;55.612;37.698;2023-02-18T16:06:18;98410.19;;;16.59
75428;BMP280;64008;55.612;37.698;2023-02-18T16:08:55;98404.53;;;16.60
75428;BMP280;64008;55.612;37.698;2023-02-18T16:11:24;98397.44;;;16.56
75428;BMP280;64008;55.612;37.698;2023-02-18T16:13:51;98392.31;;;16.59
75428;BMP280;64008;55.612;37.698;2023-02-18T16:16:27;98386.97;;;16.59
75428;BMP280;64008;55.612;37.698;2023-02-18T16:18:53;98385.38;;;16.58
75428;BMP280;64008;55.612;37.698;2023-02-18T16:26:30;98371.75;;;16.60
75428;BMP280;64008;55.612;37.698;2023-02-18T16:29:20;98368.75;;;16.61
75428;BMP280;64008;55.612;37.698;2023-02-18T16:31:47;98366.72;;;16.58
75428;BMP280;64008;55.612;37.698;2023-02-18T16:34:14;98359.69;;;16.62
75428;BMP280;64008;55.612;37.698;2023-02-18T16:36:40;98366.72;;;16.58
75428;BMP280;64008;55.612;37.698;2023-02-18T16:39:28;98366.63;;;16.63
75428;BMP280;64008;55.612;37.698;2023-02-18T16:41:53;98358.09;;;16.61
75428;BMP280;64008;55.612;37.698;2023-02-18T16:44:19;98362.66;;;16.61
75428;BMP280;64008;55.612;37.698;2023-02-18T16:46:44;98353.09;;;16.60
75428;BMP280;64008;55.612;37.698;2023-02-18T16:49:12;98349.53;;;16.64
75428;BMP280;64008;55.612;37.698;2023-02-18T16:51:38;98353.59;;;16.62
75428;BMP280;64008;55.612;37.698;2023-02-18T16:54:04;98339.28;;;16.58
75428;BMP280;64008;55.612;37.698;2023-02-18T16:56:32;98334.25;;;16.56
75428;BMP280;64008;55.612;37.698;2023-02-18T16:58:59;98337.88;;;16.60
75428;BMP280;64008;55.612;37.698;2023-02-18T17:01:28;98337.88;;;16.60
75428;BMP280;64008;55.612;37.698;2023-02-18T17:03:56;98329.22;;;16.55
75428;BMP280;64008;55.612;37.698;2023-02-18T17:06:22;98332.53;;;16.60
75428;BMP280;64008;55.612;37.698;2023-02-18T17:08:48;98332.53;;;16.60
75428;BMP280;64008;55.612;37.698;2023-02-18T17:11:17;98339.66;;;16.65
75428;BMP280;64008;55.612;37.698;2023-02-18T17:13:45;98328.47;;;16.63
75428;BMP280;64008;55.612;37.698;2023-02-18T17:16:11;98329.66;;;16.71
75428;BMP280;64008;55.612;37.698;2023-02-18T17:18:37;98322.53;;;16.66
75428;BMP280;64008;55.612;37.698;2023-02-18T17:21:02;98322.53;;;16.66
75428;BMP280;64008;55.612;37.698;2023-02-18T17:23:28;98327.41;;;16.64
75428;BMP280;64008;55.612;37.698;2023-02-18T17:25:53;98316.63;;;16.69
75428;BMP280;64008;55.612;37.698;2023-02-18T17:28:19;98329.66;;;16.71
75428;BMP280;64008;55.612;37.698;2023-02-18T17:30:47;98305.78;;;16.65
75428;BMP280;64008;55.612;37.698;2023-02-18T17:33:15;98316.00;;;16.72
75428;BMP280;64008;55.612;37.698;2023-02-18T17:35:41;98306.13;;;16.73
75428;BMP280;64008;55.612;37.698;2023-02-18T17:38:15;98301.00;;;16.76
75428;BMP280;64008;55.612;37.698;2023-02-18T17:40:42;98303.66;;;16.76
75428;BMP280;64008;55.612;37.698;2023-02-18T17:43:12;98309.47;;;16.78
75428;BMP280;64008;55.612;37.698;2023-02-18T17:45:43;98304.59;;;16.80
75428;BMP280;64008;55.612;37.698;2023-02-18T17:48:09;98304.41;;;16.77
75428;BMP280;64008;55.612;37.698;2023-02-18T17:50:35;98300.00;;;16.72
75428;BMP280;64008;55.612;37.698;2023-02-18T17:53:01;98305.53;;;16.76
75428;BMP280;64008;55.612;37.698;2023-02-18T17:55:29;98303.97;;;16.75
75428;BMP280;64008;55.612;37.698;2023-02-18T17:57:55;98297.53;;;16.76
75428;BMP280;64008;55.612;37.698;2023-02-18T18:00:24;98296.59;;;16.80
75428;BMP280;64008;55.612;37.698;2023-02-18T18:02:50;98299.56;;;16.79
75428;BMP280;64008;55.612;37.698;2023-02-18T18:05:27;98299.09;;;16.77
75428;BMP280;64008;55.612;37.698;2023-02-18T18:07:53;98294.84;;;16.76
75428;BMP280;64008;55.612;37.698;2023-02-18T18:10:21;98301.16;;;16.80
75428;BMP280;64008;55.612;37.698;2023-02-18T18:12:48;98300.69;;;16.78
75428;BMP280;64008;55.612;37.698;2023-02-18T18:15:29;98302.41;;;16.82